createdAt,value
2017-11-06T18:56:50.648Z,31.70
2017-11-06T18:57:50.614Z,34.10
2017-11-06T18:59:43.384Z,35.00
2017-11-06T19:00:43.336Z,39.90
2017-11-06T19:02:36.184Z,38.40
2017-11-06T19:03:36.101Z,43.60
2017-11-06T19:05:28.944Z,38.70
2017-11-06T19:06:28.905Z,39.80
2017-11-06T19:08:21.732Z,40.70
2017-11-06T19:09:21.709Z,38.30
2017-11-06T19:11:14.520Z,40.70
2017-11-06T19:12:14.466Z,42.00
2017-11-06T19:14:07.670Z,38.70
2017-11-06T19:15:07.204Z,40.50
2017-11-06T19:17:00.048Z,44.00
2017-11-06T19:17:59.989Z,41.10
2017-11-06T19:19:52.831Z,40.80
2017-11-06T19:20:52.787Z,43.90
2017-11-06T19:22:45.583Z,49.20
2017-11-06T19:23:45.543Z,53.60
2017-11-06T19:25:38.381Z,49.70
2017-11-06T19:26:38.308Z,47.90
2017-11-06T19:28:31.628Z,54.70
2017-11-06T19:29:31.599Z,57.50
2017-11-06T19:30:31.540Z,60.50
2017-11-06T19:31:31.500Z,57.40
2017-11-06T19:32:31.465Z,54.00
2017-11-06T19:33:31.416Z,54.00
2017-11-06T19:34:31.389Z,61.70
2017-11-06T19:35:31.339Z,57.30
2017-11-06T19:36:31.299Z,61.40
2017-11-06T19:37:31.268Z,58.70
2017-11-06T19:38:31.210Z,52.70
2017-11-06T19:39:31.187Z,57.10
2017-11-06T19:40:31.139Z,54.70
2017-11-06T19:41:31.091Z,64.20
2017-11-06T19:42:31.049Z,58.20
2017-11-06T19:43:31.027Z,59.60
2017-11-06T19:44:30.968Z,62.20
2017-11-06T19:45:30.947Z,61.60
2017-11-06T19:46:30.897Z,61.10
2017-11-06T19:47:30.851Z,52.70
2017-11-06T19:48:30.808Z,58.70
2017-11-06T19:49:30.768Z,62.00
2017-11-06T19:50:30.731Z,55.10
2017-11-06T19:51:30.688Z,58.80
2017-11-06T19:52:30.653Z,60.10
2017-11-06T19:53:30.627Z,61.50
2017-11-06T19:54:30.597Z,63.90
2017-11-06T19:55:30.542Z,59.20
2017-11-06T19:56:30.504Z,59.70
2017-11-06T19:57:30.478Z,67.90
2017-11-06T19:58:30.415Z,68.30
2017-11-06T19:59:30.386Z,66.20
2017-11-06T20:00:30.335Z,63.70
2017-11-06T20:01:30.310Z,69.00
2017-11-06T20:02:30.247Z,69.40
2017-11-06T20:03:30.208Z,68.80
2017-11-06T20:04:30.180Z,66.60
2017-11-06T20:05:30.125Z,65.30
2017-11-06T20:06:30.089Z,66.70
2017-11-06T20:07:30.052Z,71.90
2017-11-06T20:08:30.003Z,67.40
2017-11-06T20:09:29.964Z,77.50
2017-11-06T20:10:29.927Z,79.20
2017-11-06T20:11:29.893Z,68.70
2017-11-06T20:12:29.871Z,71.40
2017-11-06T20:13:29.811Z,65.50
2017-11-06T20:14:29.766Z,69.30
2017-11-06T20:15:29.747Z,73.20
2017-11-06T20:16:29.694Z,73.90
2017-11-06T20:17:29.658Z,82.50
2017-11-06T20:18:29.600Z,74.70
2017-11-06T20:19:29.570Z,77.70
2017-11-06T20:20:29.520Z,75.20
2017-11-06T20:21:29.477Z,80.00
2017-11-06T20:22:29.438Z,77.80
2017-11-06T20:23:29.403Z,84.10
2017-11-06T20:24:29.365Z,76.00
2017-11-06T20:25:29.326Z,82.40
2017-11-06T20:26:29.276Z,77.00
2017-11-06T20:27:29.243Z,78.50
2017-11-06T20:28:29.200Z,80.90
2017-11-06T20:29:29.158Z,77.60
2017-11-06T20:30:29.142Z,82.60
2017-11-06T20:31:29.087Z,83.60
2017-11-06T20:32:29.038Z,84.60
2017-11-06T20:33:28.994Z,88.40
2017-11-06T20:34:28.959Z,98.00
2017-11-06T20:35:28.911Z,89.10
2017-11-06T20:36:28.877Z,95.30
2017-11-06T20:37:28.836Z,100.80
2017-11-06T20:38:28.796Z,93.20
2017-11-06T20:39:28.749Z,96.90
2017-11-06T20:40:28.712Z,92.50
2017-11-06T20:41:28.666Z,88.90
2017-11-06T20:42:28.628Z,87.50
2017-11-06T20:43:28.586Z,91.40
2017-11-06T20:44:28.547Z,96.70
2017-11-06T20:45:28.520Z,98.00
2017-11-06T20:46:28.492Z,105.00
2017-11-06T20:47:28.420Z,101.00
2017-11-06T20:48:28.449Z,91.40
2017-11-06T20:49:28.438Z,89.60
2017-11-06T20:50:28.322Z,86.80
2017-11-06T20:51:28.271Z,91.50
2017-11-06T20:52:28.231Z,92.40
2017-11-06T20:53:28.185Z,101.70
2017-11-06T20:54:28.147Z,92.80
2017-11-06T20:55:28.112Z,94.80
2017-11-06T20:56:28.087Z,104.30
2017-11-06T20:57:28.018Z,97.00
2017-11-06T20:58:27.991Z,96.70
2017-11-06T20:59:27.947Z,84.80
2017-11-06T21:00:27.896Z,106.30
2017-11-06T21:01:27.870Z,87.50
2017-11-06T21:02:27.818Z,98.40
2017-11-06T21:03:27.774Z,107.40
2017-11-06T21:04:27.740Z,107.70
2017-11-06T21:05:27.697Z,107.90
2017-11-06T21:06:27.690Z,82.10
2017-11-06T21:07:27.647Z,118.30
2017-11-06T21:08:27.581Z,138.30
2017-11-06T21:09:27.531Z,113.00
2017-11-06T21:10:27.502Z,109.60
2017-11-06T21:11:27.459Z,122.90
2017-11-06T21:12:27.415Z,91.60
2017-11-06T21:13:27.378Z,85.00
2017-11-06T21:14:27.336Z,104.60
2017-11-06T21:15:27.310Z,95.90
2017-11-06T21:16:27.256Z,95.70
2017-11-06T21:17:27.214Z,93.10
2017-11-06T21:18:27.166Z,104.40
2017-11-06T21:19:27.177Z,85.60
2017-11-06T21:20:27.111Z,136.00
2017-11-06T21:21:27.058Z,86.40
2017-11-06T21:22:27.015Z,115.70
2017-11-06T21:23:26.972Z,156.40
2017-11-06T21:24:26.937Z,152.10
2017-11-06T21:25:26.915Z,94.30
2017-11-06T21:26:26.849Z,115.30
2017-11-06T21:27:26.818Z,123.00
2017-11-06T21:28:26.775Z,129.20
2017-11-06T21:29:26.752Z,111.10
2017-11-06T21:30:26.695Z,140.20
2017-11-06T21:31:26.652Z,107.90
2017-11-06T21:32:26.644Z,143.20
2017-11-06T21:33:26.580Z,149.40
2017-11-06T21:34:26.555Z,97.60
2017-11-06T21:35:26.482Z,100.40
2017-11-06T21:36:26.520Z,78.90
2017-11-06T21:37:26.422Z,100.20
2017-11-06T21:38:26.371Z,106.70
2017-11-06T21:39:26.328Z,92.40
2017-11-06T21:40:26.294Z,80.30
2017-11-06T21:41:26.249Z,79.60
2017-11-06T21:42:26.210Z,82.60
2017-11-06T21:43:26.180Z,77.60
2017-11-06T21:44:26.151Z,83.30
2017-11-06T21:45:26.077Z,99.30
2017-11-06T21:46:26.064Z,91.60
2017-11-06T21:47:26.005Z,102.60
2017-11-06T21:48:25.973Z,90.70
2017-11-06T21:49:25.917Z,79.50
2017-11-06T21:50:25.891Z,109.20
2017-11-06T21:51:25.845Z,86.80
2017-11-06T21:52:25.797Z,93.10
2017-11-06T21:53:25.771Z,88.90
2017-11-06T21:54:25.716Z,107.80
2017-11-06T21:55:25.678Z,74.70
2017-11-06T21:56:25.638Z,83.20
2017-11-06T21:57:25.598Z,84.80
2017-11-06T21:58:25.564Z,87.90
2017-11-06T21:59:25.515Z,69.20
2017-11-06T22:00:25.475Z,73.10
2017-11-06T22:01:25.430Z,72.70
2017-11-06T22:02:25.402Z,108.40
2017-11-06T22:03:25.363Z,72.00
2017-11-06T22:04:25.322Z,92.10
2017-11-06T22:05:25.276Z,82.10
2017-11-06T22:06:25.234Z,75.60
2017-11-06T22:07:25.193Z,56.00
2017-11-06T22:08:25.159Z,55.10
2017-11-06T22:09:25.114Z,67.30
2017-11-06T22:10:25.074Z,63.20
2017-11-06T22:11:25.036Z,54.30
2017-11-06T22:12:25.002Z,56.30
2017-11-06T22:13:24.953Z,87.50
2017-11-06T22:14:24.921Z,82.00
2017-11-06T22:15:24.879Z,64.00
2017-11-06T22:16:24.833Z,81.20
2017-11-06T22:17:24.790Z,106.20
2017-11-06T22:18:24.752Z,76.20
2017-11-06T22:19:24.734Z,87.30
2017-11-06T22:20:24.693Z,78.10
2017-11-06T22:21:24.634Z,63.60
2017-11-06T22:22:24.605Z,60.00
2017-11-06T22:23:24.554Z,50.40
2017-11-06T22:24:24.510Z,95.50
2017-11-06T22:25:24.501Z,54.90
2017-11-06T22:26:24.443Z,66.40
2017-11-06T22:27:24.398Z,123.60
2017-11-06T22:28:24.382Z,71.80
2017-11-06T22:29:24.312Z,83.40
2017-11-06T22:30:24.268Z,110.10
2017-11-06T22:31:24.231Z,72.60
2017-11-06T22:32:24.190Z,72.10
2017-11-06T22:33:24.160Z,66.80
2017-11-06T22:34:24.116Z,62.60
2017-11-06T22:35:24.071Z,73.30
2017-11-06T22:36:24.027Z,61.10
2017-11-06T22:37:24.001Z,89.90
2017-11-06T22:38:23.947Z,135.50
2017-11-06T22:39:23.923Z,74.50
2017-11-06T22:40:23.941Z,86.00
2017-11-06T22:41:23.828Z,61.00
2017-11-06T22:42:23.794Z,60.60
2017-11-06T22:43:23.744Z,96.40
2017-11-06T22:44:23.715Z,87.50
2017-11-06T22:45:23.663Z,67.90
2017-11-06T22:46:23.629Z,58.60
2017-11-06T22:47:23.632Z,79.80
2017-11-06T22:48:23.545Z,71.90
2017-11-06T22:49:23.523Z,76.80
2017-11-06T22:50:23.466Z,79.90
2017-11-06T22:51:23.436Z,66.30
2017-11-06T22:52:23.393Z,68.80
2017-11-06T22:53:23.360Z,58.40
2017-11-06T22:54:23.303Z,76.70
2017-11-06T22:55:23.263Z,69.00
2017-11-06T22:56:23.250Z,62.00
2017-11-06T22:57:23.188Z,73.50
2017-11-06T22:58:23.157Z,75.60
2017-11-06T22:59:23.101Z,67.90
2017-11-06T23:00:23.062Z,46.20
2017-11-06T23:01:23.044Z,62.00
2017-11-06T23:02:22.984Z,82.80
2017-11-06T23:03:22.940Z,78.90
2017-11-06T23:04:22.903Z,56.40
2017-11-06T23:05:22.871Z,76.30
2017-11-06T23:06:22.821Z,62.90
2017-11-06T23:07:22.782Z,79.00
2017-11-06T23:08:22.744Z,70.00
2017-11-06T23:09:22.701Z,58.60
2017-11-06T23:10:22.662Z,70.60
2017-11-06T23:11:22.619Z,99.80
2017-11-06T23:12:22.593Z,69.90
2017-11-06T23:13:22.544Z,71.60
2017-11-06T23:14:22.513Z,76.30
2017-11-06T23:15:22.469Z,75.40
2017-11-06T23:16:22.428Z,62.20
2017-11-06T23:17:22.406Z,76.20
2017-11-06T23:18:22.363Z,52.90
2017-11-06T23:19:22.296Z,66.30
2017-11-06T23:20:22.332Z,84.10
2017-11-06T23:21:22.224Z,50.20
2017-11-06T23:22:22.188Z,46.20
2017-11-06T23:23:22.150Z,48.50
2017-11-06T23:24:22.114Z,49.20
2017-11-06T23:25:22.060Z,56.10
2017-11-06T23:26:22.018Z,66.80
2017-11-06T23:27:21.992Z,83.20
2017-11-06T23:28:21.941Z,63.40
2017-11-06T23:29:21.915Z,82.60
2017-11-06T23:30:21.859Z,69.90
2017-11-06T23:31:21.821Z,65.60
2017-11-06T23:32:21.772Z,62.40
2017-11-06T23:33:21.740Z,57.80
2017-11-06T23:34:21.701Z,61.80
2017-11-06T23:35:21.653Z,62.50
2017-11-06T23:36:21.658Z,76.10
2017-11-06T23:37:21.581Z,52.60
2017-11-06T23:38:21.532Z,58.10
2017-11-06T23:39:21.491Z,48.70
2017-11-06T23:40:21.448Z,54.50
2017-11-06T23:41:21.415Z,74.80
2017-11-06T23:42:21.379Z,67.60
2017-11-06T23:43:21.332Z,50.20
2017-11-06T23:44:21.295Z,58.80
2017-11-06T23:45:21.266Z,49.40
2017-11-06T23:46:21.217Z,64.90
2017-11-06T23:47:21.238Z,56.00
2017-11-06T23:48:21.131Z,57.20
2017-11-06T23:49:21.092Z,61.50
2017-11-06T23:50:21.050Z,59.00
2017-11-06T23:51:21.008Z,65.90
2017-11-06T23:52:20.967Z,56.20
2017-11-06T23:53:20.945Z,66.90
2017-11-06T23:54:20.901Z,49.80
2017-11-06T23:55:20.855Z,68.60
2017-11-06T23:56:20.808Z,106.20
2017-11-06T23:57:20.767Z,132.80
2017-11-06T23:58:20.736Z,77.70
2017-11-06T23:59:20.694Z,94.40
